CGMPW KMEM-KGKT
Flight info
| Callsign | CGMPW |
|---|---|
| Flight time | 0h 53m |
| Altitude | 31000 |
| Route | GOETZ7 DIYAB |
| Aircraft | PC24/L-SBDGIRWY/LB2 |
Departure
| Time | 2026-05-05 11:59 |
|---|---|
| Airport | Memphis International Airport (KMEM) |
Arrival
| Time | 2026-05-05 12:53 |
|---|---|
| Airport | Gatlinburg-Pigeon Forge Airport (KGKT) |
| Time | Latitude | Longitude | Altitude | Speed | Heading |
|---|---|---|---|---|---|
| 2026-05-05 11:48 | 35.03494 | -89.96753 | 301 ft | 0 kts | 324° |
| 2026-05-05 11:51 | 35.03509 | -89.96768 | 303 ft | 6 kts | 305° |
| 2026-05-05 11:51 | 35.03507 | -89.96810 | 302 ft | 5 kts | 254° |
| 2026-05-05 11:51 | 35.03537 | -89.96842 | 303 ft | 11 kts | 339° |
| 2026-05-05 11:52 | 35.03653 | -89.96855 | 305 ft | 19 kts | 4° |
| 2026-05-05 11:52 | 35.03771 | -89.96890 | 305 ft | 17 kts | 312° |
| 2026-05-05 11:52 | 35.03807 | -89.97014 | 307 ft | 15 kts | 273° |
| 2026-05-05 11:52 | 35.03808 | -89.97138 | 306 ft | 14 kts | 270° |
| 2026-05-05 11:53 | 35.03806 | -89.97252 | 306 ft | 13 kts | 268° |
| 2026-05-05 11:53 | 35.03802 | -89.97366 | 305 ft | 14 kts | 269° |
| 2026-05-05 11:53 | 35.03801 | -89.97486 | 302 ft | 15 kts | 270° |
| 2026-05-05 11:53 | 35.03802 | -89.97609 | 302 ft | 14 kts | 267° |
| 2026-05-05 11:54 | 35.03799 | -89.97725 | 302 ft | 13 kts | 269° |
| 2026-05-05 11:54 | 35.03798 | -89.97832 | 303 ft | 12 kts | 272° |
| 2026-05-05 11:54 | 35.03800 | -89.97933 | 303 ft | 13 kts | 270° |
| 2026-05-05 11:54 | 35.03797 | -89.98059 | 303 ft | 17 kts | 265° |
| 2026-05-05 11:55 | 35.03791 | -89.98214 | 304 ft | 20 kts | 270° |
| 2026-05-05 11:55 | 35.03788 | -89.98384 | 303 ft | 20 kts | 268° |
| 2026-05-05 11:55 | 35.03841 | -89.98519 | 302 ft | 19 kts | 327° |
| 2026-05-05 11:55 | 35.03962 | -89.98594 | 299 ft | 20 kts | 353° |
| 2026-05-05 11:56 | 35.04099 | -89.98583 | 295 ft | 20 kts | 2° |
| 2026-05-05 11:56 | 35.04239 | -89.98588 | 296 ft | 20 kts | 356° |
| 2026-05-05 11:56 | 35.04381 | -89.98599 | 293 ft | 20 kts | 356° |
| 2026-05-05 11:56 | 35.04509 | -89.98609 | 295 ft | 17 kts | 356° |
| 2026-05-05 11:57 | 35.04624 | -89.98620 | 293 ft | 16 kts | 355° |
| 2026-05-05 11:57 | 35.04736 | -89.98627 | 292 ft | 16 kts | 356° |
| 2026-05-05 11:57 | 35.04811 | -89.98628 | 293 ft | 0 kts | 329° |
| 2026-05-05 11:58 | 35.04796 | -89.98738 | 293 ft | 31 kts | 207° |
| 2026-05-05 11:59 | 35.04475 | -89.98732 | 292 ft | 85 kts | 175° |
| 2026-05-05 11:59 | 35.03606 | -89.98729 | 379 ft | 159 kts | 180° |
| 2026-05-05 11:59 | 35.02506 | -89.98633 | 1618 ft | 155 kts | 172° |
| 2026-05-05 11:59 | 35.01442 | -89.98199 | 2774 ft | 176 kts | 158° |
| 2026-05-05 12:00 | 35.00203 | -89.97616 | 3644 ft | 210 kts | 161° |
| 2026-05-05 12:00 | 34.98708 | -89.96999 | 4531 ft | 243 kts | 162° |
| 2026-05-05 12:00 | 34.97005 | -89.96319 | 5407 ft | 271 kts | 161° |
| 2026-05-05 12:00 | 34.95288 | -89.95148 | 6253 ft | 296 kts | 142° |
| 2026-05-05 12:01 | 34.93848 | -89.93238 | 7091 ft | 318 kts | 123° |
| 2026-05-05 12:01 | 34.92996 | -89.90831 | 7907 ft | 292 kts | 104° |
| 2026-05-05 12:01 | 34.92776 | -89.88517 | 8697 ft | 271 kts | 93° |
| 2026-05-05 12:01 | 34.92675 | -89.86139 | 9515 ft | 292 kts | 91° |
| 2026-05-05 12:02 | 34.92954 | -89.83828 | 10300 ft | 261 kts | 73° |
| 2026-05-05 12:02 | 34.93660 | -89.81768 | 11113 ft | 270 kts | 60° |
| 2026-05-05 12:02 | 34.94642 | -89.79752 | 11941 ft | 283 kts | 59° |
| 2026-05-05 12:02 | 34.95653 | -89.77625 | 12778 ft | 296 kts | 59° |
| 2026-05-05 12:03 | 34.96715 | -89.75406 | 13617 ft | 308 kts | 59° |
| 2026-05-05 12:03 | 34.97812 | -89.73105 | 14452 ft | 319 kts | 60° |
| 2026-05-05 12:03 | 34.98926 | -89.70724 | 15284 ft | 328 kts | 60° |
| 2026-05-05 12:03 | 35.00073 | -89.68277 | 16113 ft | 336 kts | 60° |
| 2026-05-05 12:04 | 35.01249 | -89.65775 | 16941 ft | 343 kts | 60° |
| 2026-05-05 12:04 | 35.02450 | -89.63224 | 17769 ft | 349 kts | 60° |
| 2026-05-05 12:04 | 35.03250 | -89.61519 | 18315 ft | 351 kts | 60° |
| 2026-05-05 12:04 | 35.04471 | -89.58915 | 19139 ft | 355 kts | 60° |
| 2026-05-05 12:05 | 35.06105 | -89.55428 | 20229 ft | 358 kts | 60° |
| 2026-05-05 12:05 | 35.06942 | -89.53642 | 20783 ft | 359 kts | 60° |
| 2026-05-05 12:05 | 35.08181 | -89.50993 | 21601 ft | 360 kts | 60° |
| 2026-05-05 12:05 | 35.09424 | -89.48338 | 22422 ft | 359 kts | 60° |
| 2026-05-05 12:06 | 35.10660 | -89.45690 | 23237 ft | 358 kts | 60° |
| 2026-05-05 12:06 | 35.11892 | -89.43054 | 24052 ft | 356 kts | 60° |
| 2026-05-05 12:06 | 35.13099 | -89.40466 | 24852 ft | 354 kts | 60° |
| 2026-05-05 12:06 | 35.14314 | -89.37862 | 25668 ft | 351 kts | 60° |
| 2026-05-05 12:07 | 35.15516 | -89.35280 | 26479 ft | 347 kts | 60° |
| 2026-05-05 12:07 | 35.16706 | -89.32725 | 27290 ft | 343 kts | 60° |
| 2026-05-05 12:07 | 35.17875 | -89.30211 | 28097 ft | 338 kts | 60° |
| 2026-05-05 12:07 | 35.19030 | -89.27728 | 28902 ft | 332 kts | 60° |
| 2026-05-05 12:08 | 35.20162 | -89.25290 | 29708 ft | 326 kts | 60° |
| 2026-05-05 12:08 | 35.21267 | -89.22891 | 30455 ft | 321 kts | 62° |
| 2026-05-05 12:08 | 35.22070 | -89.20328 | 30904 ft | 326 kts | 73° |
| 2026-05-05 12:08 | 35.22752 | -89.17622 | 31001 ft | 342 kts | 72° |
| 2026-05-05 12:09 | 35.23485 | -89.14814 | 31011 ft | 359 kts | 72° |
| 2026-05-05 12:09 | 35.24260 | -89.11841 | 31011 ft | 375 kts | 72° |
| 2026-05-05 12:09 | 35.25060 | -89.08742 | 31010 ft | 389 kts | 72° |
| 2026-05-05 12:09 | 35.25882 | -89.05531 | 31011 ft | 401 kts | 72° |
| 2026-05-05 12:10 | 35.27570 | -88.98843 | 31010 ft | 420 kts | 73° |
| 2026-05-05 12:10 | 35.29292 | -88.91903 | 31009 ft | 430 kts | 73° |
| 2026-05-05 12:11 | 35.30550 | -88.84724 | 31006 ft | 432 kts | 83° |
| 2026-05-05 12:11 | 35.31257 | -88.77495 | 31000 ft | 425 kts | 80° |
| 2026-05-05 12:12 | 35.32409 | -88.70460 | 30997 ft | 424 kts | 79° |
| 2026-05-05 12:12 | 35.33343 | -88.63326 | 30999 ft | 425 kts | 80° |
| 2026-05-05 12:13 | 35.34383 | -88.56179 | 31000 ft | 426 kts | 80° |
| 2026-05-05 12:13 | 35.35373 | -88.49012 | 31001 ft | 427 kts | 80° |
| 2026-05-05 12:14 | 35.36379 | -88.41842 | 31002 ft | 427 kts | 80° |
| 2026-05-05 12:14 | 35.37368 | -88.34708 | 31003 ft | 427 kts | 80° |
| 2026-05-05 12:15 | 35.38364 | -88.27509 | 31004 ft | 428 kts | 80° |
| 2026-05-05 12:15 | 35.39354 | -88.20313 | 31004 ft | 427 kts | 80° |
| 2026-05-05 12:16 | 35.40330 | -88.13188 | 31003 ft | 425 kts | 80° |
| 2026-05-05 12:16 | 35.41305 | -88.06037 | 31002 ft | 424 kts | 80° |
| 2026-05-05 12:17 | 35.42273 | -87.98905 | 31001 ft | 423 kts | 81° |
| 2026-05-05 12:17 | 35.43230 | -87.91821 | 31000 ft | 423 kts | 81° |
| 2026-05-05 12:18 | 35.44190 | -87.84690 | 31001 ft | 425 kts | 81° |
| 2026-05-05 12:18 | 35.45150 | -87.77514 | 31004 ft | 427 kts | 81° |
| 2026-05-05 12:19 | 35.46111 | -87.70307 | 31006 ft | 428 kts | 81° |
| 2026-05-05 12:19 | 35.47067 | -87.63102 | 31006 ft | 427 kts | 81° |
| 2026-05-05 12:20 | 35.48009 | -87.55962 | 31004 ft | 425 kts | 81° |
| 2026-05-05 12:20 | 35.48949 | -87.48808 | 31003 ft | 424 kts | 81° |
| 2026-05-05 12:21 | 35.49885 | -87.41651 | 31002 ft | 424 kts | 81° |
| 2026-05-05 12:21 | 35.50816 | -87.34500 | 31003 ft | 425 kts | 81° |
| 2026-05-05 12:22 | 35.51746 | -87.27319 | 31005 ft | 427 kts | 81° |
| 2026-05-05 12:22 | 35.52671 | -87.20148 | 31007 ft | 427 kts | 81° |
| 2026-05-05 12:23 | 35.53596 | -87.12937 | 31008 ft | 428 kts | 81° |
| 2026-05-05 12:23 | 35.54523 | -87.05682 | 31009 ft | 427 kts | 81° |
| 2026-05-05 12:24 | 35.55432 | -86.98524 | 31007 ft | 425 kts | 81° |
| 2026-05-05 12:24 | 35.56338 | -86.91360 | 31005 ft | 424 kts | 81° |
| 2026-05-05 12:25 | 35.57238 | -86.84204 | 31005 ft | 425 kts | 81° |
| 2026-05-05 12:25 | 35.58139 | -86.77012 | 31007 ft | 426 kts | 81° |
| 2026-05-05 12:26 | 35.59031 | -86.69845 | 31009 ft | 427 kts | 81° |
| 2026-05-05 12:26 | 35.59927 | -86.62617 | 31010 ft | 428 kts | 81° |
| 2026-05-05 12:27 | 35.60819 | -86.55384 | 31008 ft | 427 kts | 81° |
| 2026-05-05 12:27 | 35.61705 | -86.48164 | 31007 ft | 426 kts | 81° |
| 2026-05-05 12:28 | 35.62577 | -86.41018 | 31005 ft | 425 kts | 81° |
| 2026-05-05 12:28 | 35.63450 | -86.33834 | 31005 ft | 425 kts | 81° |
| 2026-05-05 12:29 | 35.64320 | -86.26631 | 31006 ft | 426 kts | 81° |
| 2026-05-05 12:29 | 35.65188 | -86.19416 | 31008 ft | 427 kts | 82° |
| 2026-05-05 12:30 | 35.66053 | -86.12181 | 31008 ft | 427 kts | 82° |
| 2026-05-05 12:30 | 35.66909 | -86.04986 | 31009 ft | 428 kts | 82° |
| 2026-05-05 12:31 | 35.67766 | -85.97748 | 31010 ft | 428 kts | 82° |
| 2026-05-05 12:31 | 35.68619 | -85.90499 | 31008 ft | 428 kts | 82° |
| 2026-05-05 12:32 | 35.69468 | -85.83250 | 31009 ft | 428 kts | 82° |
| 2026-05-05 12:32 | 35.70313 | -85.75991 | 31009 ft | 428 kts | 82° |
| 2026-05-05 12:33 | 35.71154 | -85.68732 | 31004 ft | 428 kts | 82° |
| 2026-05-05 12:33 | 35.71576 | -85.65071 | 30493 ft | 433 kts | 82° |
| 2026-05-05 12:33 | 35.71991 | -85.61465 | 29974 ft | 428 kts | 82° |
| 2026-05-05 12:34 | 35.72406 | -85.57845 | 29449 ft | 426 kts | 82° |
| 2026-05-05 12:34 | 35.72819 | -85.54239 | 28925 ft | 425 kts | 82° |
| 2026-05-05 12:34 | 35.73231 | -85.50632 | 28403 ft | 426 kts | 82° |
| 2026-05-05 12:34 | 35.73643 | -85.47014 | 27883 ft | 428 kts | 82° |
| 2026-05-05 12:35 | 35.74056 | -85.43374 | 27360 ft | 430 kts | 82° |
| 2026-05-05 12:35 | 35.74468 | -85.39733 | 26840 ft | 428 kts | 82° |
| 2026-05-05 12:35 | 35.74875 | -85.36124 | 26315 ft | 423 kts | 82° |
| 2026-05-05 12:35 | 35.75275 | -85.32563 | 25791 ft | 418 kts | 82° |
| 2026-05-05 12:36 | 35.75673 | -85.29032 | 25264 ft | 414 kts | 82° |
| 2026-05-05 12:36 | 35.76065 | -85.25527 | 24738 ft | 411 kts | 82° |
| 2026-05-05 12:36 | 35.76454 | -85.22044 | 24212 ft | 408 kts | 82° |
| 2026-05-05 12:36 | 35.76832 | -85.18640 | 23695 ft | 406 kts | 82° |
| 2026-05-05 12:37 | 35.77215 | -85.15204 | 23170 ft | 403 kts | 82° |
| 2026-05-05 12:37 | 35.77593 | -85.11788 | 22645 ft | 401 kts | 82° |
| 2026-05-05 12:37 | 35.77969 | -85.08390 | 22114 ft | 399 kts | 82° |
| 2026-05-05 12:37 | 35.78341 | -85.05007 | 21596 ft | 397 kts | 82° |
| 2026-05-05 12:38 | 35.78711 | -85.01640 | 21072 ft | 396 kts | 82° |
| 2026-05-05 12:38 | 35.79074 | -84.98335 | 20546 ft | 378 kts | 82° |
| 2026-05-05 12:38 | 35.79414 | -84.95215 | 20016 ft | 370 kts | 82° |
| 2026-05-05 12:38 | 35.79762 | -84.92036 | 19490 ft | 377 kts | 82° |
| 2026-05-05 12:39 | 35.80109 | -84.88836 | 18969 ft | 376 kts | 82° |
| 2026-05-05 12:39 | 35.80457 | -84.85644 | 18447 ft | 375 kts | 82° |
| 2026-05-05 12:39 | 35.80801 | -84.82459 | 17921 ft | 373 kts | 82° |
| 2026-05-05 12:39 | 35.81142 | -84.79307 | 17399 ft | 370 kts | 82° |
| 2026-05-05 12:40 | 35.81473 | -84.76221 | 16879 ft | 366 kts | 82° |
| 2026-05-05 12:40 | 35.81807 | -84.73123 | 16354 ft | 363 kts | 82° |
| 2026-05-05 12:40 | 35.82137 | -84.70045 | 15828 ft | 360 kts | 82° |
| 2026-05-05 12:40 | 35.82462 | -84.66998 | 15311 ft | 358 kts | 82° |
| 2026-05-05 12:41 | 35.82786 | -84.63970 | 14778 ft | 355 kts | 82° |
| 2026-05-05 12:41 | 35.83104 | -84.60968 | 14254 ft | 352 kts | 82° |
| 2026-05-05 12:41 | 35.83422 | -84.57988 | 13729 ft | 349 kts | 82° |
| 2026-05-05 12:41 | 35.83733 | -84.55031 | 13203 ft | 346 kts | 82° |
| 2026-05-05 12:42 | 35.84044 | -84.52100 | 12684 ft | 344 kts | 82° |
| 2026-05-05 12:42 | 35.84348 | -84.49214 | 12163 ft | 341 kts | 83° |
| 2026-05-05 12:42 | 35.84652 | -84.46323 | 11634 ft | 339 kts | 82° |
| 2026-05-05 12:42 | 35.84954 | -84.43447 | 11113 ft | 336 kts | 83° |
| 2026-05-05 12:43 | 35.85252 | -84.40599 | 10582 ft | 334 kts | 82° |
| 2026-05-05 12:43 | 35.85548 | -84.37772 | 10058 ft | 331 kts | 83° |
| 2026-05-05 12:43 | 35.85838 | -84.34964 | 9532 ft | 329 kts | 83° |
| 2026-05-05 12:43 | 35.86130 | -84.32180 | 9008 ft | 326 kts | 83° |
| 2026-05-05 12:44 | 35.86415 | -84.29416 | 8484 ft | 324 kts | 83° |
| 2026-05-05 12:44 | 35.86699 | -84.26671 | 7959 ft | 321 kts | 83° |
| 2026-05-05 12:44 | 35.86981 | -84.23946 | 7435 ft | 319 kts | 83° |
| 2026-05-05 12:44 | 35.87260 | -84.21241 | 6907 ft | 317 kts | 83° |
| 2026-05-05 12:45 | 35.87531 | -84.18593 | 6390 ft | 314 kts | 83° |
| 2026-05-05 12:45 | 35.87805 | -84.15929 | 5868 ft | 312 kts | 83° |
| 2026-05-05 12:45 | 35.88075 | -84.13276 | 5340 ft | 309 kts | 83° |
| 2026-05-05 12:45 | 35.88343 | -84.10669 | 5007 ft | 303 kts | 83° |
| 2026-05-05 12:46 | 35.88604 | -84.08096 | 4997 ft | 305 kts | 83° |
| 2026-05-05 12:46 | 35.88867 | -84.05499 | 5000 ft | 305 kts | 83° |
| 2026-05-05 12:46 | 35.89135 | -84.02893 | 5002 ft | 308 kts | 83° |
| 2026-05-05 12:46 | 35.89397 | -84.00268 | 5004 ft | 308 kts | 83° |
| 2026-05-05 12:47 | 35.89664 | -83.97639 | 5004 ft | 308 kts | 83° |
| 2026-05-05 12:47 | 35.89928 | -83.95013 | 5006 ft | 308 kts | 83° |
| 2026-05-05 12:47 | 35.90191 | -83.92385 | 5005 ft | 308 kts | 83° |
| 2026-05-05 12:47 | 35.90434 | -83.89763 | 5000 ft | 306 kts | 86° |
| 2026-05-05 12:48 | 35.90166 | -83.87198 | 4996 ft | 306 kts | 102° |
| 2026-05-05 12:48 | 35.89783 | -83.84594 | 5001 ft | 309 kts | 98° |
| 2026-05-05 12:48 | 35.89470 | -83.81980 | 5003 ft | 308 kts | 99° |
| 2026-05-05 12:48 | 35.89110 | -83.79365 | 4976 ft | 309 kts | 100° |
| 2026-05-05 12:49 | 35.88737 | -83.76744 | 4655 ft | 310 kts | 99° |
| 2026-05-05 12:49 | 35.88420 | -83.74130 | 4254 ft | 306 kts | 98° |
| 2026-05-05 12:49 | 35.88120 | -83.71540 | 3852 ft | 301 kts | 98° |
| 2026-05-05 12:49 | 35.87812 | -83.69105 | 3475 ft | 271 kts | 99° |
| 2026-05-05 12:50 | 35.87549 | -83.67014 | 3100 ft | 227 kts | 99° |
| 2026-05-05 12:50 | 35.87331 | -83.65266 | 2796 ft | 186 kts | 99° |
| 2026-05-05 12:50 | 35.87150 | -83.63816 | 2571 ft | 155 kts | 98° |
| 2026-05-05 12:50 | 35.86994 | -83.62578 | 2345 ft | 143 kts | 99° |
| 2026-05-05 12:51 | 35.86847 | -83.61397 | 2208 ft | 139 kts | 99° |
| 2026-05-05 12:51 | 35.86697 | -83.60212 | 2046 ft | 141 kts | 98° |
| 2026-05-05 12:51 | 35.86546 | -83.59005 | 1893 ft | 145 kts | 99° |
| 2026-05-05 12:51 | 35.86391 | -83.57762 | 1689 ft | 146 kts | 99° |
| 2026-05-05 12:52 | 35.86237 | -83.56544 | 1479 ft | 142 kts | 99° |
| 2026-05-05 12:52 | 35.86092 | -83.55392 | 1306 ft | 127 kts | 99° |
| 2026-05-05 12:52 | 35.85965 | -83.54372 | 1109 ft | 115 kts | 98° |
| 2026-05-05 12:52 | 35.85852 | -83.53448 | 995 ft | 95 kts | 99° |
| 2026-05-05 12:53 | 35.85799 | -83.53032 | 999 ft | 21 kts | 99° |
| 2026-05-05 12:53 | 35.85777 | -83.52858 | 996 ft | 20 kts | 98° |
| 2026-05-05 12:53 | 35.85795 | -83.52713 | 994 ft | 19 kts | 24° |
| 2026-05-05 12:53 | 35.85796 | -83.52589 | 996 ft | 17 kts | 103° |